Time;durP1;ratioP1;P1;durP2;ratioP2;P2;SDS_P1;SDS_P2;PMS_P1;PMS_P2;Temp;Humidity;BMP_temperature;BMP_pressure;BME280_temperature;BME280_humidity;BME280_pressure;Samples;Min_cycle;Max_cycle;Signal;HPM_P1;HPM_P2
2022/04/09 00:00:40;;;;;;;0.20;0.20;;;;;;;23.23;16.89;97247.44;5016231;28;20034;-73
2022/04/09 00:03:06;;;;;;;0.15;0.15;;;;;;;23.22;16.91;97249.41;5016144;28;20060;-75
2022/04/09 00:05:31;;;;;;;0.20;0.20;;;;;;;23.21;17.08;97245.06;5015891;28;20523;-74
2022/04/09 00:07:57;;;;;;;0.20;0.20;;;;;;;23.24;17.08;97243.59;5015980;28;20022;-74
2022/04/09 00:10:22;;;;;;;0.10;0.10;;;;;;;23.21;17.09;97239.63;5016050;28;20033;-74
2022/04/09 00:12:47;;;;;;;0.45;0.10;;;;;;;23.22;17.05;97241.22;5015493;28;20034;-73
2022/04/09 00:15:13;;;;;;;0.10;0.10;;;;;;;23.21;17.08;97244.28;5015449;28;20029;-75
2022/04/09 00:17:41;;;;;;;0.10;0.10;;;;;;;23.20;17.18;97242.72;5007403;28;20022;-73
2022/04/09 00:20:07;;;;;;;0.10;0.10;;;;;;;23.20;17.23;97240.00;4995823;28;20477;-73
2022/04/09 00:22:33;;;;;;;0.20;0.20;;;;;;;23.20;17.13;97237.28;4995989;28;20022;-72
2022/04/09 00:24:58;;;;;;;0.20;0.20;;;;;;;23.19;17.19;97230.22;4995603;28;20437;-73
2022/04/09 00:27:23;;;;;;;0.20;0.20;;;;;;;23.19;17.21;97231.00;4994733;28;20029;-73
2022/04/09 00:29:49;;;;;;;0.20;0.20;;;;;;;23.18;17.15;97236.81;4995877;28;20454;-72
2022/04/09 00:32:14;;;;;;;0.30;0.20;;;;;;;23.20;16.89;97245.44;4995722;28;20088;-73
2022/04/09 00:34:40;;;;;;;0.10;0.10;;;;;;;23.19;17.13;97246.56;4995887;28;20042;-73
2022/04/09 00:37:05;;;;;;;0.10;0.10;;;;;;;23.20;17.08;97229.09;4995476;28;20026;-72
2022/04/09 00:39:31;;;;;;;0.20;0.10;;;;;;;23.20;16.89;97231.81;4995281;28;20030;-73
2022/04/09 00:41:56;;;;;;;0.10;0.10;;;;;;;23.20;17.22;97237.28;4995379;28;20022;-73
2022/04/09 00:44:21;;;;;;;0.20;0.20;;;;;;;23.19;17.05;97241.13;4995553;28;20037;-73
2022/04/09 00:46:47;;;;;;;0.10;0.10;;;;;;;23.16;16.98;97237.19;5009911;28;20039;-73
2022/04/09 00:49:13;;;;;;;0.20;0.20;;;;;;;23.17;17.33;97246.91;4995167;28;20032;-73
2022/04/09 00:51:42;;;;;;;0.20;0.20;;;;;;;23.16;17.11;97244.53;4995415;28;20146;-73
2022/04/09 00:54:08;;;;;;;0.20;0.20;;;;;;;23.17;17.02;97243.41;4995091;28;20033;-72
2022/04/09 00:56:34;;;;;;;0.20;0.17;;;;;;;23.16;17.09;97241.81;4994014;28;20026;-72
2022/04/09 00:59:02;;;;;;;0.20;0.20;;;;;;;23.16;17.29;97241.81;4994189;28;20026;-72
2022/04/09 01:01:28;;;;;;;0.13;0.13;;;;;;;23.14;17.16;97244.09;4995245;28;20461;-72
2022/04/09 01:03:54;;;;;;;0.10;0.10;;;;;;;23.16;17.10;97244.53;4994336;28;20037;-72
2022/04/09 01:06:19;;;;;;;0.20;0.20;;;;;;;23.17;17.03;97248.88;4995525;28;20030;-73
2022/04/09 01:08:45;;;;;;;0.20;0.20;;;;;;;23.14;17.04;97244.09;4995644;28;20034;-73
2022/04/09 01:11:13;;;;;;;0.40;0.30;;;;;;;23.15;16.96;97245.69;4995149;28;20030;-75
2022/04/09 01:13:39;;;;;;;0.10;0.10;;;;;;;23.15;17.15;97246.47;4995519;28;20468;-75
2022/04/09 01:16:05;;;;;;;0.20;0.20;;;;;;;23.16;16.93;97255.44;4995438;28;20495;-75
2022/04/09 01:18:31;;;;;;;0.10;0.10;;;;;;;23.13;17.11;97253.41;5009308;28;20033;-75
2022/04/09 01:21:00;;;;;;;0.20;0.20;;;;;;;23.13;17.05;97253.41;5013965;28;20029;-75
2022/04/09 01:23:26;;;;;;;0.17;0.17;;;;;;;23.14;17.13;97260.44;5013777;28;20053;-75
2022/04/09 01:25:52;;;;;;;0.20;0.20;;;;;;;23.13;17.04;97270.56;5017098;28;20105;-75
2022/04/09 01:28:17;;;;;;;0.10;0.10;;;;;;;23.14;16.89;97268.63;5014698;28;20033;-74
2022/04/09 01:30:42;;;;;;;0.10;0.10;;;;;;;23.14;16.98;97272.13;5014186;28;20029;-75
2022/04/09 01:33:14;;;;;;;0.20;0.20;;;;;;;23.08;16.86;97259.91;5013217;28;20030;-73
2022/04/09 01:35:39;;;;;;;0.10;0.10;;;;;;;23.13;16.92;97270.56;5012962;28;20041;-74
2022/04/09 01:38:05;;;;;;;0.15;0.15;;;;;;;23.10;17.01;97268.53;5013791;28;20034;-74
2022/04/09 01:40:30;;;;;;;0.17;0.17;;;;;;;23.12;17.10;97274.41;5013988;28;20034;-74
2022/04/09 01:42:56;;;;;;;0.20;0.20;;;;;;;23.11;16.76;97272.03;5014027;28;20022;-73
2022/04/09 01:45:21;;;;;;;0.10;0.10;;;;;;;23.12;16.81;97279.06;5014249;28;20022;-74
2022/04/09 01:47:47;;;;;;;0.20;0.20;;;;;;;23.12;16.94;97279.84;5014033;28;20025;-75
2022/04/09 01:50:12;;;;;;;0.20;0.20;;;;;;;23.11;16.83;97280.19;5014077;28;20376;-73
2022/04/09 01:52:37;;;;;;;0.20;0.20;;;;;;;23.10;16.92;97284.06;5013406;28;20392;-72
2022/04/09 01:55:04;;;;;;;0.10;0.10;;;;;;;23.11;16.96;97283.72;5014619;28;20077;-71
2022/04/09 01:57:29;;;;;;;0.10;0.10;;;;;;;23.10;16.94;97284.06;5012407;28;20461;-72
2022/04/09 01:59:55;;;;;;;0.10;0.10;;;;;;;23.10;16.93;97294.97;5014091;28;20029;-72
2022/04/09 02:02:20;;;;;;;0.10;0.10;;;;;;;23.11;17.00;97288.38;5014028;28;20431;-73
2022/04/09 02:04:46;;;;;;;0.10;0.10;;;;;;;23.10;16.79;97286.81;5013551;28;20112;-72
2022/04/09 02:07:12;;;;;;;0.10;0.10;;;;;;;23.10;16.79;97287.59;5013656;28;20030;-72
2022/04/09 02:09:37;;;;;;;0.22;0.20;;;;;;;23.09;16.72;97287.94;5013528;28;20030;-73
2022/04/09 02:12:03;;;;;;;0.10;0.10;;;;;;;23.09;16.68;97285.19;5013615;28;20026;-72
2022/04/09 02:14:28;;;;;;;0.20;0.20;;;;;;;23.09;16.94;97279.75;5013638;28;20116;-73
2022/04/09 02:16:54;;;;;;;0.10;0.10;;;;;;;23.08;16.92;97278.16;5013412;28;20030;-73
2022/04/09 02:19:19;;;;;;;0.17;0.17;;;;;;;23.08;16.98;97283.59;4994151;28;20027;-73
2022/04/09 02:21:45;;;;;;;0.40;0.20;;;;;;;23.09;16.78;97279.75;4992836;28;20034;-73
2022/04/09 02:24:10;;;;;;;0.10;0.10;;;;;;;23.08;16.81;97289.06;4993780;28;20473;-73
2022/04/09 02:26:36;;;;;;;0.10;0.10;;;;;;;23.06;16.82;97284.75;4993748;28;20034;-72
2022/04/09 02:29:01;;;;;;;0.20;0.20;;;;;;;23.07;16.58;97291.00;4993835;28;20457;-73
2022/04/09 02:31:26;;;;;;;0.10;0.10;;;;;;;23.06;16.57;97287.47;4993704;28;20025;-73
2022/04/09 02:33:53;;;;;;;0.20;0.20;;;;;;;23.03;16.80;97295.53;4992456;28;20038;-73
2022/04/09 02:36:19;;;;;;;0.20;0.20;;;;;;;23.01;16.56;97300.53;4993950;28;20037;-73
2022/04/09 02:38:45;;;;;;;0.13;0.13;;;;;;;23.05;16.61;97307.69;4993974;28;20030;-73
2022/04/09 02:41:10;;;;;;;0.10;0.10;;;;;;;23.06;16.75;97303.03;4992698;28;20030;-73
2022/04/09 02:43:40;;;;;;;0.10;0.10;;;;;;;23.04;16.54;97303.34;4993838;28;20032;-72
2022/04/09 02:46:05;;;;;;;0.10;0.10;;;;;;;23.05;16.71;97301.41;4992374;28;20037;-72
2022/04/09 02:48:31;;;;;;;0.17;0.17;;;;;;;23.05;16.48;97307.69;4993897;28;20026;-73
2022/04/09 02:50:56;;;;;;;0.25;0.20;;;;;;;23.04;16.62;97305.25;4996301;28;20030;-74
2022/04/09 02:53:22;;;;;;;0.20;0.20;;;;;;;23.05;16.68;97306.84;4997613;28;20376;-74
2022/04/09 02:55:47;;;;;;;0.10;0.10;;;;;;;23.04;16.66;97306.06;4997724;28;20457;-74
2022/04/09 02:58:13;;;;;;;0.20;0.20;;;;;;;23.01;16.46;97300.53;4997375;28;20033;-74
2022/04/09 03:00:39;;;;;;;0.10;0.10;;;;;;;23.04;16.67;97306.06;4997229;28;20037;-74
2022/04/09 03:03:07;;;;;;;0.20;0.20;;;;;;;23.04;16.45;97310.72;4997208;28;20034;-75
2022/04/09 03:05:33;;;;;;;0.20;0.20;;;;;;;23.02;16.47;97305.59;4997091;28;20424;-74
2022/04/09 03:07:58;;;;;;;0.20;0.20;;;;;;;23.02;16.45;97308.31;4997437;28;20106;-74
2022/04/09 03:10:24;;;;;;;0.20;0.20;;;;;;;23.03;16.58;97300.97;4997043;28;20492;-74
2022/04/09 03:12:49;;;;;;;0.10;0.10;;;;;;;23.01;16.66;97309.47;4997386;28;20057;-74
2022/04/09 03:15:15;;;;;;;0.10;0.10;;;;;;;23.00;16.39;97301.66;4997301;28;20046;-74
2022/04/09 03:17:41;;;;;;;0.10;0.10;;;;;;;22.99;16.48;97303.59;5000349;28;20026;-74
2022/04/09 03:20:07;;;;;;;0.10;0.10;;;;;;;23.02;16.53;97302.09;5016741;28;20065;-74
2022/04/09 03:22:32;;;;;;;0.10;0.10;;;;;;;23.02;16.46;97299.38;5015630;28;20100;-73
2022/04/09 03:24:58;;;;;;;0.20;0.20;;;;;;;22.99;16.48;97291.88;5016925;28;20476;-74
2022/04/09 03:27:25;;;;;;;0.10;0.10;;;;;;;22.99;16.41;97297.34;5016860;28;20452;-72
2022/04/09 03:29:50;;;;;;;0.20;0.20;;;;;;;23.00;16.36;97299.72;5016939;28;20065;-73
2022/04/09 03:32:15;;;;;;;0.20;0.20;;;;;;;22.86;16.41;97272.88;5017128;28;20357;-72
2022/04/09 03:34:41;;;;;;;0.10;0.10;;;;;;;23.00;16.60;97293.47;5016554;28;20034;-73
2022/04/09 03:37:06;;;;;;;0.17;0.17;;;;;;;23.00;16.40;97297.00;5017008;28;20030;-71
2022/04/09 03:39:32;;;;;;;0.10;0.10;;;;;;;22.96;16.47;97298.84;5015719;28;20100;-73
2022/04/09 03:41:57;;;;;;;0.10;0.10;;;;;;;22.99;16.48;97298.16;5016507;28;20431;-72
2022/04/09 03:44:23;;;;;;;0.10;0.10;;;;;;;22.99;16.36;97297.34;5016053;28;20034;-72
2022/04/09 03:46:48;;;;;;;0.13;0.13;;;;;;;22.96;16.58;97295.31;5015990;28;20026;-73
2022/04/09 03:49:15;;;;;;;0.10;0.10;;;;;;;22.99;16.45;97300.88;5016282;28;20025;-72
2022/04/09 03:51:40;;;;;;;0.10;0.10;;;;;;;22.99;16.66;97298.16;5015885;28;20050;-72
2022/04/09 03:54:06;;;;;;;0.20;0.20;;;;;;;22.98;16.57;97304.72;5016189;28;20368;-73
2022/04/09 03:56:31;;;;;;;0.20;0.20;;;;;;;22.99;16.52;97302.78;5016115;28;20033;-72
2022/04/09 03:58:57;;;;;;;0.13;0.13;;;;;;;23.00;16.74;97293.47;5016087;28;20034;-72
2022/04/09 04:01:24;;;;;;;0.10;0.10;;;;;;;22.98;16.83;97298.50;5016261;28;20033;-73
2022/04/09 04:03:51;;;;;;;0.10;0.10;;;;;;;22.98;16.80;97304.72;5016142;28;20037;-72
2022/04/09 04:06:17;;;;;;;0.20;0.15;;;;;;;22.96;16.66;97296.09;5015783;28;20512;-72
2022/04/09 04:08:42;;;;;;;0.10;0.10;;;;;;;22.97;17.26;97302.34;5016548;28;20073;-72
2022/04/09 04:11:08;;;;;;;0.10;0.10;;;;;;;22.96;16.86;97303.50;5014696;28;20476;-73
2022/04/09 04:13:36;;;;;;;0.13;0.10;;;;;;;22.96;16.98;97306.22;5015963;28;20021;-72
2022/04/09 04:16:04;;;;;;;0.20;0.20;;;;;;;22.95;16.98;97308.13;5016354;28;20030;-73
2022/04/09 04:18:29;;;;;;;0.10;0.10;;;;;;;22.97;17.16;97321.41;5006151;28;20493;-77
2022/04/09 04:20:54;;;;;;;0.20;0.20;;;;;;;22.95;16.91;97312.78;4996847;28;20026;-77
2022/04/09 04:23:20;;;;;;;0.20;0.20;;;;;;;22.95;17.13;97321.75;4997204;28;20424;-78
2022/04/09 04:25:46;;;;;;;0.20;0.20;;;;;;;22.94;16.98;97316.63;4995550;28;20041;-78
2022/04/09 04:28:11;;;;;;;0.10;0.10;;;;;;;22.94;16.96;97325.63;4995896;28;20146;-79
2022/04/09 04:30:36;;;;;;;0.10;0.10;;;;;;;22.95;17.03;97324.47;4996017;28;20450;-77
2022/04/09 04:33:02;;;;;;;0.10;0.10;;;;;;;22.95;17.15;97326.41;4995558;28;20421;-77
2022/04/09 04:35:27;;;;;;;0.10;0.10;;;;;;;22.94;16.90;97327.53;4996462;28;20038;-77
2022/04/09 04:37:54;;;;;;;0.20;0.20;;;;;;;22.94;16.91;97328.34;4995590;28;20077;-77
2022/04/09 04:40:19;;;;;;;0.10;0.10;;;;;;;22.93;16.98;97326.75;4995770;28;20034;-77
2022/04/09 04:42:45;;;;;;;0.10;0.10;;;;;;;22.94;16.96;97322.09;4995337;28;20116;-77
2022/04/09 04:45:11;;;;;;;0.20;0.20;;;;;;;22.95;17.04;97329.91;4995618;28;20137;-77
2022/04/09 04:47:46;;;;;;;0.20;0.20;;;;;;;22.92;16.89;97336.06;4995399;28;20118;-77
2022/04/09 04:50:12;;;;;;;0.10;0.10;;;;;;;22.91;16.90;97334.47;4995615;28;20229;-78
2022/04/09 04:52:38;;;;;;;0.30;0.13;;;;;;;22.87;16.85;97339.81;4994136;28;20043;-76
2022/04/09 04:55:03;;;;;;;0.20;0.20;;;;;;;22.93;16.98;97351.25;4995340;28;20030;-77
2022/04/09 04:57:30;;;;;;;0.10;0.10;;;;;;;22.94;16.94;97350.13;4995838;28;20050;-77
2022/04/09 04:59:58;;;;;;;0.20;0.20;;;;;;;22.94;16.77;97355.56;4995124;28;20045;-77
2022/04/09 05:02:24;;;;;;;0.10;0.10;;;;;;;22.95;16.83;97354.41;4995735;28;20036;-77
2022/04/09 05:04:49;;;;;;;0.10;0.10;;;;;;;22.95;16.83;97359.88;4994990;28;20396;-78
2022/04/09 05:07:16;;;;;;;0.10;0.10;;;;;;;22.95;16.71;97362.59;4994955;28;20022;-77
2022/04/09 05:09:42;;;;;;;0.20;0.20;;;;;;;22.94;16.89;97361.03;4995228;28;20072;-77
2022/04/09 05:12:11;;;;;;;0.10;0.10;;;;;;;22.94;16.87;97361.03;4994425;28;20026;-77
2022/04/09 05:14:36;;;;;;;0.10;0.10;;;;;;;22.92;16.67;97368.75;4994893;28;20436;-77
2022/04/09 05:17:02;;;;;;;0.15;0.15;;;;;;;22.93;16.73;97372.25;4993849;28;20030;-78
2022/04/09 05:19:27;;;;;;;0.10;0.10;;;;;;;22.93;16.67;97374.97;5011834;28;20053;-78
2022/04/09 05:21:53;;;;;;;0.10;0.10;;;;;;;22.93;16.56;97375.75;5014682;28;20374;-76
2022/04/09 05:24:18;;;;;;;0.10;0.10;;;;;;;22.93;16.68;97381.19;5014658;28;20357;-77
2022/04/09 05:26:43;;;;;;;0.10;0.10;;;;;;;22.93;16.92;97383.94;5014431;28;20368;-76
2022/04/09 05:29:09;;;;;;;0.17;0.17;;;;;;;22.93;16.70;97392.09;5014407;28;20034;-76
2022/04/09 05:31:34;;;;;;;0.10;0.10;;;;;;;22.92;16.76;97385.06;5014519;28;20029;-76
2022/04/09 05:34:00;;;;;;;0.10;0.10;;;;;;;22.92;16.67;97392.44;5014381;28;20037;-77
2022/04/09 05:36:25;;;;;;;0.15;0.15;;;;;;;22.93;16.85;97392.09;5014072;28;20026;-77
2022/04/09 05:38:50;;;;;;;0.10;0.10;;;;;;;22.93;16.80;97399.47;5014461;28;20022;-76
2022/04/09 05:41:16;;;;;;;0.10;0.10;;;;;;;22.92;16.81;97401.41;5014223;28;20037;-77
2022/04/09 05:43:41;;;;;;;0.10;0.10;;;;;;;22.92;16.82;97404.13;5013945;28;20041;-76
2022/04/09 05:46:07;;;;;;;0.10;0.10;;;;;;;22.91;16.87;97402.53;5014301;28;20030;-77
2022/04/09 05:48:32;;;;;;;0.15;0.15;;;;;;;22.93;16.88;97408.44;5014109;28;20457;-77
2022/04/09 05:50:58;;;;;;;0.10;0.10;;;;;;;22.93;16.82;97418.53;5012651;28;20479;-77
2022/04/09 05:53:23;;;;;;;0.10;0.10;;;;;;;22.91;16.57;97421.59;5013783;28;20350;-77
2022/04/09 05:55:48;;;;;;;0.10;0.10;;;;;;;22.84;16.80;97421.38;5013989;28;20461;-76
2022/04/09 05:58:14;;;;;;;0.10;0.10;;;;;;;22.93;16.78;97438.38;5014105;28;20460;-77
2022/04/09 06:00:40;;;;;;;0.17;0.13;;;;;;;22.92;16.78;97428.66;5014496;28;20479;-77
2022/04/09 06:03:05;;;;;;;0.10;0.10;;;;;;;22.93;16.82;97441.09;5014397;28;20030;-77
2022/04/09 06:05:31;;;;;;;0.20;0.15;;;;;;;22.91;16.82;97443.38;5013711;28;20061;-77
2022/04/09 06:07:56;;;;;;;0.15;0.15;;;;;;;22.93;16.76;97451.22;5013597;28;20029;-77
2022/04/09 06:10:21;;;;;;;0.10;0.10;;;;;;;22.91;16.78;97443.38;5013778;28;20026;-77
2022/04/09 06:12:47;;;;;;;0.10;0.10;;;;;;;22.91;16.64;97446.09;5014157;28;20041;-78
2022/04/09 06:15:12;;;;;;;0.20;0.20;;;;;;;22.91;16.83;97459.72;5013896;28;20026;-77
2022/04/09 06:17:39;;;;;;;0.10;0.10;;;;;;;22.91;16.88;97458.94;5013072;28;20033;-78
2022/04/09 06:20:06;;;;;;;0.10;0.10;;;;;;;22.90;16.75;97458.13;4994368;28;20034;-77
2022/04/09 06:22:32;;;;;;;0.10;0.10;;;;;;;22.89;16.81;97467.44;4993839;28;20030;-77
2022/04/09 06:24:58;;;;;;;0.10;0.10;;;;;;;22.86;16.82;97458.00;4997096;28;20030;-77
2022/04/09 06:27:23;;;;;;;0.10;0.10;;;;;;;22.90;16.76;97476.41;4997139;28;20026;-77
2022/04/09 06:29:49;;;;;;;0.15;0.15;;;;;;;22.91;16.59;97480.72;4997105;28;20477;-77
2022/04/09 06:32:14;;;;;;;0.17;0.17;;;;;;;22.90;16.67;97482.63;4998508;28;20037;-77
2022/04/09 06:34:40;;;;;;;0.10;0.10;;;;;;;22.91;16.60;97481.50;4999076;28;20465;-77
2022/04/09 06:37:05;;;;;;;0.10;0.10;;;;;;;22.91;16.48;97486.94;4998394;28;20181;-74
2022/04/09 06:39:30;;;;;;;0.10;0.10;;;;;;;22.92;16.57;97494.00;4998516;28;20061;-75
2022/04/09 06:41:56;;;;;;;0.10;0.10;;;;;;;22.92;16.57;97482.28;4998345;28;20469;-74
2022/04/09 06:44:21;;;;;;;0.20;0.20;;;;;;;22.92;16.49;97493.19;4998785;28;20473;-75
2022/04/09 06:46:47;;;;;;;0.10;0.10;;;;;;;22.90;16.40;97495.47;4998588;28;20026;-74
2022/04/09 06:49:15;;;;;;;0.20;0.20;;;;;;;22.89;16.54;97500.13;4998970;28;20077;-75
2022/04/09 06:51:41;;;;;;;0.10;0.10;;;;;;;22.91;16.41;97508.75;4999267;28;20065;-75
2022/04/09 06:54:06;;;;;;;0.20;0.20;;;;;;;22.91;16.45;97514.19;4998765;28;20022;-75
2022/04/09 06:56:32;;;;;;;0.10;0.10;;;;;;;22.91;16.54;97514.19;4998696;28;20465;-75
2022/04/09 06:58:57;;;;;;;0.10;0.10;;;;;;;22.92;16.36;97512.25;4998966;28;20025;-75
2022/04/09 07:01:23;;;;;;;0.13;0.13;;;;;;;22.90;16.23;97509.84;4998969;28;20029;-75
2022/04/09 07:03:48;;;;;;;0.10;0.10;;;;;;;22.84;16.53;97508.50;4998591;28;20428;-74
2022/04/09 07:06:16;;;;;;;0.10;0.10;;;;;;;22.91;16.40;97508.75;4999429;28;20018;-75
2022/04/09 07:08:41;;;;;;;0.10;0.10;;;;;;;22.89;16.39;97511.00;4997595;28;20484;-73
2022/04/09 07:11:07;;;;;;;0.10;0.10;;;;;;;22.88;16.49;97521.09;4997371;28;20033;-73
2022/04/09 07:13:33;;;;;;;0.20;0.20;;;;;;;22.90;16.77;97522.69;4997472;28;20109;-74
2022/04/09 07:15:58;;;;;;;0.10;0.10;;;;;;;22.90;16.54;97523.47;4997565;28;20030;-75
2022/04/09 07:18:23;;;;;;;0.10;0.10;;;;;;;22.90;16.62;97534.38;5002818;28;20411;-72
2022/04/09 07:20:49;;;;;;;0.20;0.20;;;;;;;22.89;16.70;97538.25;5016535;28;20427;-73
2022/04/09 07:23:14;;;;;;;0.20;0.20;;;;;;;22.88;16.74;97536.63;5016513;28;20037;-72
2022/04/09 07:25:42;;;;;;;0.20;0.20;;;;;;;22.90;16.76;97550.69;5016484;28;20026;-72
2022/04/09 07:28:07;;;;;;;0.10;0.10;;;;;;;22.91;16.81;97546.84;5016947;28;20034;-73
2022/04/09 07:30:33;;;;;;;0.10;0.10;;;;;;;22.88;16.67;97544.81;5016470;28;20489;-73
2022/04/09 07:32:58;;;;;;;0.10;0.10;;;;;;;22.91;16.87;97557.75;5014966;28;20034;-72
2022/04/09 07:35:24;;;;;;;0.10;0.10;;;;;;;22.89;16.65;97543.69;5016230;28;20033;-72
2022/04/09 07:37:50;;;;;;;0.20;0.20;;;;;;;22.85;16.65;97565.34;5016445;28;20026;-73
2022/04/09 07:40:17;;;;;;;0.10;0.10;;;;;;;22.86;16.78;97569.66;5016117;28;20084;-72
2022/04/09 07:42:43;;;;;;;0.10;0.10;;;;;;;22.87;16.51;97565.03;5016822;28;20029;-72
2022/04/09 07:45:09;;;;;;;0.13;0.13;;;;;;;22.86;16.69;97566.13;5016409;28;20023;-73
2022/04/09 07:47:34;;;;;;;0.20;0.20;;;;;;;22.84;16.65;97576.56;5016287;28;20496;-72
2022/04/09 07:50:03;;;;;;;0.22;0.20;;;;;;;22.83;16.70;97577.69;5016258;28;20092;-72
2022/04/09 07:52:28;;;;;;;0.10;0.10;;;;;;;22.85;16.65;97586.31;5015777;28;20049;-72
2022/04/09 07:54:57;;;;;;;0.20;0.20;;;;;;;22.85;16.39;97586.31;5016125;28;20022;-72
2022/04/09 07:57:26;;;;;;;0.10;0.10;;;;;;;22.88;16.29;97596.53;5015804;28;20518;-73
2022/04/09 07:59:53;;;;;;;0.20;0.20;;;;;;;22.87;16.55;97600.41;5016091;28;20034;-73
2022/04/09 08:02:19;;;;;;;0.10;0.10;;;;;;;22.89;16.59;97603.59;5015740;28;20503;-72
2022/04/09 08:04:45;;;;;;;0.17;0.17;;;;;;;22.85;16.32;97608.91;5016050;28;20104;-74
2022/04/09 08:07:10;;;;;;;0.20;0.20;;;;;;;22.87;16.39;97606.66;5014767;28;20484;-74
2022/04/09 08:09:36;;;;;;;0.13;0.13;;;;;;;22.83;16.29;97605.72;5016016;28;20457;-74
2022/04/09 08:12:01;;;;;;;0.13;0.13;;;;;;;22.84;16.23;97622.88;5015555;28;20488;-74
2022/04/09 08:14:26;;;;;;;0.30;0.30;;;;;;;22.82;16.23;97620.47;5015734;28;20041;-74
2022/04/09 08:16:52;;;;;;;0.10;0.10;;;;;;;22.81;16.31;97624.31;5016054;28;20083;-73
2022/04/09 08:19:18;;;;;;;0.20;0.20;;;;;;;22.83;16.28;97627.50;5003659;28;20023;-74
2022/04/09 08:21:44;;;;;;;0.10;0.10;;;;;;;22.85;16.17;97643.50;4995822;28;20560;-74
2022/04/09 08:24:10;;;;;;;0.13;0.13;;;;;;;22.84;16.17;97666.44;4996130;28;20030;-74
2022/04/09 08:26:36;;;;;;;0.10;0.10;;;;;;;22.86;16.04;97661.44;4996096;28;20077;-74
2022/04/09 08:29:03;;;;;;;0.10;0.10;;;;;;;22.86;16.17;97653.28;4996654;28;20453;-73
2022/04/09 08:31:28;;;;;;;0.20;0.20;;;;;;;22.85;16.19;97657.94;4995872;28;20073;-74
2022/04/09 08:33:54;;;;;;;0.10;0.10;;;;;;;22.88;16.48;97661.91;4995627;28;20380;-75
2022/04/09 08:36:19;;;;;;;0.10;0.10;;;;;;;22.87;16.41;97668.50;4994362;28;20030;-74
2022/04/09 08:38:45;;;;;;;0.10;0.10;;;;;;;22.84;16.57;97671.88;4995811;28;20027;-74
2022/04/09 08:41:14;;;;;;;0.20;0.20;;;;;;;22.83;16.45;97681.94;4995789;28;20026;-74
2022/04/09 08:43:39;;;;;;;0.20;0.20;;;;;;;22.84;16.62;97685.50;4995714;28;20027;-75
2022/04/09 08:46:05;;;;;;;0.10;0.10;;;;;;;22.85;16.38;97697.97;4995866;28;20045;-73
2022/04/09 08:48:31;;;;;;;0.10;0.10;;;;;;;22.86;16.64;97705.00;4994354;28;20045;-73
2022/04/09 08:50:57;;;;;;;0.10;0.10;;;;;;;22.84;16.60;97704.56;4995372;28;20027;-73
2022/04/09 08:53:23;;;;;;;0.20;0.20;;;;;;;22.84;16.64;97707.28;4995585;28;20113;-72
2022/04/09 08:55:50;;;;;;;0.20;0.20;;;;;;;22.84;16.43;97710.00;4995603;28;20577;-72
2022/04/09 08:58:15;;;;;;;0.63;0.20;;;;;;;22.87;16.54;97712.06;4995243;28;20089;-73
2022/04/09 09:00:42;;;;;;;0.20;0.20;;;;;;;22.86;16.58;97713.19;4995228;28;20026;-73
2022/04/09 09:03:10;;;;;;;0.10;0.10;;;;;;;22.86;16.61;97724.06;4996091;28;20153;-72
2022/04/09 09:05:41;;;;;;;0.17;0.17;;;;;;;22.82;16.67;97710.31;4996156;28;20054;-72
2022/04/09 09:08:07;;;;;;;0.17;0.17;;;;;;;22.86;16.68;97713.19;4996117;28;20037;-72
2022/04/09 09:10:33;;;;;;;0.20;0.20;;;;;;;22.88;16.62;97727.25;4995958;28;20468;-72
2022/04/09 09:12:59;;;;;;;0.20;0.20;;;;;;;22.87;16.61;97722.94;4995695;28;20037;-73
2022/04/09 09:15:26;;;;;;;0.10;0.10;;;;;;;22.89;16.65;97726.13;4994764;28;20030;-73
2022/04/09 09:17:55;;;;;;;0.20;0.20;;;;;;;22.91;16.76;97721.13;4995763;28;20030;-72
2022/04/09 09:20:20;;;;;;;0.10;0.10;;;;;;;22.92;16.67;97722.75;5014077;28;20036;-72
2022/04/09 09:22:48;;;;;;;0.10;0.10;;;;;;;22.89;16.55;97728.84;5014550;28;20373;-73
2022/04/09 09:25:13;;;;;;;0.10;0.10;;;;;;;22.88;16.90;97727.25;5014216;28;20033;-72
2022/04/09 09:27:40;;;;;;;0.10;0.10;;;;;;;22.85;16.64;97728.72;5014265;28;20030;-72
2022/04/09 09:30:06;;;;;;;0.10;0.10;;;;;;;22.87;16.78;97731.13;5014495;28;20029;-74
2022/04/09 09:32:32;;;;;;;0.10;0.10;;;;;;;22.86;16.76;97738.47;5012766;28;20109;-74
2022/04/09 09:35:01;;;;;;;0.20;0.20;;;;;;;22.73;16.74;97727.84;5013155;28;20022;-74
2022/04/09 09:37:28;;;;;;;0.10;0.10;;;;;;;22.83;16.73;97747.28;5014775;28;20038;-74
2022/04/09 09:39:54;;;;;;;0.20;0.20;;;;;;;22.83;16.90;97738.34;5014333;28;20041;-74
2022/04/09 09:42:23;;;;;;;0.15;0.15;;;;;;;22.86;16.93;97734.97;5014152;28;20037;-75
2022/04/09 09:44:48;;;;;;;0.10;0.10;;;;;;;22.86;16.97;97729.50;5014406;28;20026;-75
2022/04/09 09:47:20;;;;;;;0.10;0.10;;;;;;;22.81;17.11;97732.44;5012958;28;20018;-73
2022/04/09 09:49:53;;;;;;;0.20;0.20;;;;;;;22.87;16.85;97739.28;5014880;28;20029;-74
2022/04/09 09:52:30;;;;;;;0.10;0.10;;;;;;;22.86;17.09;97748.56;5014018;28;20038;-74
2022/04/09 09:54:57;;;;;;;0.10;0.10;;;;;;;22.85;17.09;97755.94;5012978;28;20376;-74
2022/04/09 09:57:24;;;;;;;0.20;0.20;;;;;;;22.88;17.16;97759.91;5014977;28;20419;-74
2022/04/09 09:59:50;;;;;;;0.20;0.20;;;;;;;22.84;16.97;97759.00;5013866;28;20391;-73
2022/04/09 10:02:19;;;;;;;0.20;0.20;;;;;;;22.86;16.98;97760.25;5013748;28;20026;-74
2022/04/09 10:04:45;;;;;;;0.10;0.10;;;;;;;22.85;17.02;97760.59;5014732;28;20030;-74
2022/04/09 10:07:10;;;;;;;0.20;0.20;;;;;;;22.85;17.10;97757.84;5015030;28;20096;-74
2022/04/09 10:09:35;;;;;;;0.20;0.20;;;;;;;22.86;16.89;97762.19;5013607;28;20026;-74
2022/04/09 10:12:02;;;;;;;0.10;0.10;;;;;;;22.84;16.96;97753.56;5016188;28;20061;-75
2022/04/09 10:14:28;;;;;;;0.20;0.20;;;;;;;22.85;16.92;97760.59;5019682;28;20037;-75
2022/04/09 10:16:54;;;;;;;0.20;0.20;;;;;;;22.82;17.04;97772.94;5025627;28;20022;-73
2022/04/09 10:19:19;;;;;;;0.30;0.20;;;;;;;22.82;17.04;97777.59;5014720;28;20519;-72
2022/04/09 10:21:46;;;;;;;0.10;0.10;;;;;;;22.85;16.96;97776.91;5005720;28;20027;-72
2022/04/09 10:24:16;;;;;;;0.10;0.10;;;;;;;22.83;16.96;97781.91;5006593;28;20101;-72
2022/04/09 10:26:41;;;;;;;0.20;0.20;;;;;;;22.86;16.82;97786.69;5004283;28;20054;-73
2022/04/09 10:29:08;;;;;;;0.20;0.20;;;;;;;22.86;16.76;97794.88;5003482;28;20434;-73
2022/04/09 10:31:38;;;;;;;0.10;0.10;;;;;;;22.82;16.66;97783.84;5005069;28;20030;-73
2022/04/09 10:34:05;;;;;;;0.10;0.10;;;;;;;22.84;16.60;97780.78;5003919;28;20026;-72
2022/04/09 10:36:43;;;;;;;0.10;0.10;;;;;;;22.88;16.65;97792.59;5007717;28;20027;-72
2022/04/09 10:39:36;;;;;;;0.10;0.10;;;;;;;22.92;16.50;97800.91;5006316;28;20105;-73
2022/04/09 10:42:02;;;;;;;0.20;0.20;;;;;;;22.86;16.48;97794.88;5005856;28;20037;-72
2022/04/09 10:44:36;;;;;;;0.10;0.10;;;;;;;22.83;16.42;97800.97;5008710;28;20034;-73
2022/04/09 10:47:02;;;;;;;0.10;0.10;;;;;;;22.84;16.26;97802.56;5009766;28;20030;-73
2022/04/09 10:49:29;;;;;;;0.20;0.20;;;;;;;22.78;16.25;97803.88;5009829;28;20049;-73
2022/04/09 10:52:11;;;;;;;0.10;0.10;;;;;;;22.85;16.42;97802.25;5009224;28;20457;-72
2022/04/09 10:54:43;;;;;;;0.10;0.10;;;;;;;22.81;16.03;97797.78;5008610;28;20093;-73
2022/04/09 10:57:24;;;;;;;0.10;0.10;;;;;;;22.88;16.21;97803.50;5006799;28;20038;-73
2022/04/09 10:59:58;;;;;;;0.10;0.10;;;;;;;22.86;16.01;97800.31;5007723;28;20048;-73
2022/04/09 11:02:25;;;;;;;0.20;0.20;;;;;;;22.86;15.90;97803.03;5007109;28;20030;-73
2022/04/09 11:04:51;;;;;;;0.20;0.20;;;;;;;22.85;15.79;97809.59;5006806;28;20034;-75
2022/04/09 11:07:17;;;;;;;0.10;0.10;;;;;;;22.84;15.79;97816.19;5005673;28;20026;-74
2022/04/09 11:09:56;;;;;;;0.13;0.13;;;;;;;22.85;15.64;97806.88;5006246;28;20106;-74
2022/04/09 11:12:30;;;;;;;0.17;0.17;;;;;;;22.83;15.58;97806.41;5009506;28;20050;-74
2022/04/09 11:15:00;;;;;;;0.10;0.10;;;;;;;22.82;15.54;97811.06;5011155;28;20011;-75
2022/04/09 11:17:39;;;;;;;0.10;0.10;;;;;;;22.78;15.39;97804.69;5011100;28;20026;-75
2022/04/09 11:20:12;;;;;;;0.10;0.10;;;;;;;22.81;15.33;97814.91;5026220;28;20026;-75
2022/04/09 11:22:51;;;;;;;0.20;0.20;;;;;;;22.78;15.13;97803.88;5031229;28;20029;-75
2022/04/09 11:25:20;;;;;;;0.75;0.20;;;;;;;22.83;15.11;97811.84;5034077;28;20042;-74
2022/04/09 11:27:45;;;;;;;0.20;0.20;;;;;;;22.85;15.09;97809.59;5032326;28;20034;-75
2022/04/09 11:30:12;;;;;;;0.10;0.10;;;;;;;22.85;14.78;97815.03;5033724;28;20037;-74